createdAt,value
2023-03-24T00:01:07.648Z,1.20
2023-03-24T00:03:40.037Z,1.35
2023-03-24T00:06:13.848Z,1.27
2023-03-24T00:08:48.154Z,1.30
2023-03-24T00:11:19.161Z,1.10
2023-03-24T00:13:50.730Z,1.00
2023-03-24T00:16:22.304Z,1.20
2023-03-24T00:18:55.595Z,1.70
2023-03-24T00:21:26.931Z,1.10
2023-03-24T00:23:59.825Z,1.33
2023-03-24T00:26:30.203Z,1.40
2023-03-24T00:28:59.937Z,1.15
2023-03-24T00:31:29.706Z,1.40
2023-03-24T00:34:03.155Z,1.20
2023-03-24T00:36:32.835Z,1.15
2023-03-24T00:39:02.679Z,1.02
2023-03-24T00:41:32.410Z,1.05
2023-03-24T00:44:03.922Z,1.50
2023-03-24T00:46:35.475Z,1.10
2023-03-24T00:49:12.234Z,1.08
2023-03-24T00:51:45.788Z,1.10
2023-03-24T00:54:16.479Z,1.35
2023-03-24T00:56:50.107Z,1.20
2023-03-24T00:59:21.547Z,1.42
2023-03-24T01:01:51.257Z,1.70
2023-03-24T01:04:24.583Z,1.40
2023-03-24T01:06:54.556Z,1.67
2023-03-24T01:09:24.384Z,1.70
2023-03-24T01:11:54.958Z,1.60
2023-03-24T01:14:24.739Z,1.42
2023-03-24T01:16:54.373Z,1.38
2023-03-24T01:19:27.174Z,1.55
2023-03-24T01:21:57.487Z,1.80
2023-03-24T01:24:27.820Z,1.98
2023-03-24T01:26:57.526Z,1.85
2023-03-24T01:29:27.220Z,1.77
2023-03-24T01:31:56.947Z,2.03
2023-03-24T01:34:29.280Z,1.75
2023-03-24T01:36:58.936Z,2.05
2023-03-24T01:39:29.917Z,1.52
2023-03-24T01:42:00.130Z,1.73
2023-03-24T01:44:34.322Z,1.83
2023-03-24T01:47:05.214Z,1.95
2023-03-24T01:49:41.678Z,1.80
2023-03-24T01:52:25.355Z,1.70
2023-03-24T01:54:58.165Z,2.13
2023-03-24T01:57:30.881Z,1.60
2023-03-24T02:00:05.246Z,1.52
2023-03-24T02:02:58.922Z,1.98
2023-03-24T02:05:36.718Z,2.30
2023-03-24T02:08:11.009Z,1.67
2023-03-24T02:10:41.535Z,1.77
2023-03-24T02:13:11.539Z,1.70
2023-03-24T02:15:48.258Z,1.80
2023-03-24T02:18:26.052Z,1.63
2023-03-24T02:21:32.866Z,2.03
2023-03-24T02:24:42.722Z,1.95
2023-03-24T02:27:31.876Z,1.90
2023-03-24T02:30:19.701Z,1.80
2023-03-24T02:33:14.200Z,2.20
2023-03-24T02:36:29.292Z,2.05
2023-03-24T02:39:43.772Z,1.80
2023-03-24T02:42:26.434Z,1.80
2023-03-24T02:45:08.372Z,1.90
2023-03-24T02:47:46.475Z,1.90
2023-03-24T02:50:24.909Z,1.80
2023-03-24T02:53:04.373Z,2.08
2023-03-24T02:55:39.993Z,2.03
2023-03-24T02:58:20.134Z,2.00
2023-03-24T03:01:00.084Z,1.90
2023-03-24T03:04:02.003Z,2.03
2023-03-24T03:06:36.526Z,1.90
2023-03-24T03:09:10.257Z,1.77
2023-03-24T03:11:42.334Z,1.63
2023-03-24T03:14:20.650Z,1.70
2023-03-24T03:17:00.223Z,1.92
2023-03-24T03:19:34.863Z,1.70
2023-03-24T03:22:07.646Z,1.65
2023-03-24T03:24:43.496Z,1.30
2023-03-24T03:29:54.502Z,1.52
2023-03-24T03:32:28.959Z,1.80
2023-03-24T03:35:04.319Z,1.65
2023-03-24T03:37:44.883Z,1.60
2023-03-24T03:40:21.912Z,1.50
2023-03-24T03:42:56.848Z,1.77
2023-03-24T03:45:29.446Z,1.55
2023-03-24T03:47:59.422Z,1.67
2023-03-24T03:50:29.490Z,1.92
2023-03-24T03:53:03.907Z,1.48
2023-03-24T03:55:35.512Z,1.50
2023-03-24T03:58:07.273Z,1.40
2023-03-24T04:00:47.010Z,1.58
2023-03-24T04:03:54.010Z,1.70
2023-03-24T04:06:41.056Z,1.50
2023-03-24T04:09:27.608Z,1.70
2023-03-24T04:12:14.379Z,1.85
2023-03-24T04:15:08.801Z,1.70
2023-03-24T04:18:15.583Z,1.60
2023-03-24T04:21:06.717Z,1.50
2023-03-24T04:23:46.187Z,1.80
2023-03-24T04:26:26.812Z,1.80
2023-03-24T04:29:10.096Z,1.65
2023-03-24T04:31:45.114Z,1.70
2023-03-24T04:34:26.195Z,1.60
2023-03-24T04:37:02.953Z,1.60
2023-03-24T04:39:45.816Z,2.20
2023-03-24T04:42:24.540Z,2.10
2023-03-24T04:44:57.743Z,2.10
2023-03-24T04:47:51.135Z,2.30
2023-03-24T04:50:57.046Z,2.08
2023-03-24T04:53:29.393Z,2.22
2023-03-24T04:56:16.577Z,2.40
2023-03-24T04:58:59.415Z,2.20
2023-03-24T05:01:30.439Z,2.08
2023-03-24T05:04:38.810Z,2.30
2023-03-24T05:07:28.640Z,2.10
2023-03-24T05:10:01.971Z,2.40
2023-03-24T05:12:33.213Z,2.30
2023-03-24T05:15:21.187Z,2.55
2023-03-24T05:17:55.821Z,2.05
2023-03-24T05:20:30.122Z,2.38
2023-03-24T05:23:11.736Z,2.30
2023-03-24T05:25:43.157Z,2.45
2023-03-24T05:28:13.033Z,2.58
2023-03-24T05:30:42.957Z,2.38
2023-03-24T05:33:40.743Z,2.60
2023-03-24T05:36:15.091Z,2.58
2023-03-24T05:38:50.213Z,2.45
2023-03-24T05:41:19.937Z,2.45
2023-03-24T05:43:49.695Z,2.35
2023-03-24T05:46:20.368Z,2.50
2023-03-24T05:48:52.053Z,2.60
2023-03-24T05:51:23.041Z,2.50
2023-03-24T05:54:06.503Z,2.50
2023-03-24T05:56:59.285Z,2.22
2023-03-24T05:59:29.209Z,2.40
2023-03-24T06:02:10.861Z,2.60
2023-03-24T06:04:53.707Z,2.03
2023-03-24T06:07:27.028Z,2.20
2023-03-24T06:10:03.258Z,2.22
2023-03-24T06:12:41.551Z,2.15
2023-03-24T06:15:17.755Z,1.75
2023-03-24T06:17:50.454Z,2.13
2023-03-24T06:20:29.270Z,1.95
2023-03-24T06:23:06.290Z,1.80
2023-03-24T06:25:47.741Z,1.70
2023-03-24T06:28:26.305Z,1.90
2023-03-24T06:30:59.209Z,1.67
2023-03-24T06:33:35.446Z,1.75
2023-03-24T06:36:07.655Z,2.10
2023-03-24T06:38:37.455Z,1.70
2023-03-24T06:41:11.971Z,1.98
2023-03-24T06:43:41.672Z,1.65
2023-03-24T06:46:12.042Z,1.77
2023-03-24T06:48:44.941Z,1.90
2023-03-24T06:51:14.749Z,2.10
2023-03-24T06:53:45.923Z,2.25
2023-03-24T06:56:21.234Z,1.92
2023-03-24T06:58:57.070Z,1.83
2023-03-24T07:01:38.732Z,2.28
2023-03-24T07:04:20.335Z,2.03
2023-03-24T07:07:12.529Z,1.70
2023-03-24T07:09:47.312Z,1.90
2023-03-24T07:12:19.658Z,2.08
2023-03-24T07:14:49.420Z,2.05
2023-03-24T07:17:19.332Z,2.00
2023-03-24T07:20:09.758Z,1.73
2023-03-24T07:22:50.693Z,1.90
2023-03-24T07:25:29.583Z,2.28
2023-03-24T07:28:22.666Z,2.30
2023-03-24T07:30:55.258Z,1.77
2023-03-24T07:33:26.742Z,1.80
2023-03-24T07:36:00.157Z,2.17
2023-03-24T07:38:30.023Z,2.45
2023-03-24T07:41:05.742Z,1.83
2023-03-24T07:43:41.570Z,1.70
2023-03-24T07:46:22.800Z,1.77
2023-03-24T07:48:52.848Z,2.22
2023-03-24T07:51:23.107Z,2.00
2023-03-24T07:53:57.087Z,1.52
2023-03-24T07:56:33.254Z,1.80
2023-03-24T07:59:07.923Z,1.70
2023-03-24T08:01:58.466Z,2.03
2023-03-24T08:04:43.073Z,2.33
2023-03-24T08:07:42.716Z,2.00
2023-03-24T08:10:13.952Z,1.23
2023-03-24T08:12:44.268Z,1.00
2023-03-24T08:15:16.800Z,0.70
2023-03-24T08:17:47.685Z,0.88
2023-03-24T08:20:18.082Z,0.85
2023-03-24T08:22:50.236Z,0.70
2023-03-24T08:25:22.078Z,0.55
2023-03-24T08:27:51.919Z,0.50
2023-03-24T08:30:26.596Z,0.60
2023-03-24T08:32:58.270Z,0.63
2023-03-24T08:35:31.649Z,0.63
2023-03-24T08:38:06.019Z,0.60
2023-03-24T08:40:37.487Z,0.70
2023-03-24T08:43:11.195Z,0.70
2023-03-24T08:45:43.802Z,0.80
2023-03-24T08:48:13.765Z,0.60
2023-03-24T08:50:44.577Z,0.80
2023-03-24T08:53:14.424Z,0.73
2023-03-24T08:55:45.652Z,0.80
2023-03-24T08:58:20.417Z,1.30
2023-03-24T09:00:53.031Z,1.13
2023-03-24T09:03:23.079Z,0.90
2023-03-24T09:05:53.451Z,0.88
2023-03-24T09:08:23.179Z,0.85
2023-03-24T09:10:53.122Z,1.08
2023-03-24T09:13:23.336Z,1.00
2023-03-24T09:16:01.044Z,0.90
2023-03-24T09:18:31.804Z,1.10
2023-03-24T09:21:01.611Z,0.88
2023-03-24T09:23:31.862Z,1.20
2023-03-24T09:26:03.046Z,1.10
2023-03-24T09:28:33.294Z,1.35
2023-03-24T09:31:08.126Z,1.15
2023-03-24T09:33:38.531Z,1.10
2023-03-24T09:36:09.179Z,1.10
2023-03-24T09:38:38.922Z,0.90
2023-03-24T09:41:19.918Z,1.02
2023-03-24T09:43:56.919Z,1.20
2023-03-24T09:46:34.116Z,1.05
2023-03-24T09:49:03.789Z,1.10
2023-03-24T09:51:37.204Z,1.08
2023-03-24T09:54:17.141Z,1.38
2023-03-24T09:56:51.303Z,1.33
2023-03-24T09:59:23.558Z,0.93
2023-03-24T10:01:55.834Z,1.05
2023-03-24T10:04:32.319Z,1.43
2023-03-24T10:07:06.902Z,0.80
2023-03-24T10:09:38.092Z,1.00
2023-03-24T10:12:24.110Z,1.48
2023-03-24T10:15:05.728Z,1.85
2023-03-24T10:17:46.237Z,1.30
2023-03-24T10:20:27.627Z,1.20
2023-03-24T10:23:04.102Z,1.10
2023-03-24T10:25:53.516Z,1.20
2023-03-24T10:28:28.853Z,1.40
2023-03-24T10:31:04.167Z,0.98
2023-03-24T10:33:37.740Z,1.00
2023-03-24T10:36:11.113Z,1.35
2023-03-24T10:38:41.239Z,1.38
2023-03-24T10:41:19.402Z,1.13
2023-03-24T10:43:50.575Z,1.00
2023-03-24T10:46:24.231Z,1.00
2023-03-24T10:49:10.199Z,0.90
2023-03-24T10:51:41.498Z,0.73
2023-03-24T10:54:18.596Z,0.90
2023-03-24T10:56:50.753Z,1.52
2023-03-24T10:59:28.933Z,1.25
2023-03-24T11:02:02.323Z,0.88
2023-03-24T11:04:35.798Z,0.85
2023-03-24T11:07:08.696Z,0.93
2023-03-24T11:09:45.405Z,1.13
2023-03-24T11:12:26.303Z,0.88
2023-03-24T11:15:14.166Z,1.30
2023-03-24T11:17:51.249Z,1.13
2023-03-24T11:20:29.462Z,1.00
2023-03-24T11:23:02.731Z,1.27
2023-03-24T11:25:34.628Z,0.88
2023-03-24T11:28:09.026Z,0.80
2023-03-24T11:30:48.677Z,0.80
2023-03-24T11:33:35.641Z,0.82
2023-03-24T11:36:47.319Z,0.90
2023-03-24T11:39:21.665Z,1.05
2023-03-24T11:42:03.362Z,0.82
2023-03-24T11:44:35.947Z,0.80
2023-03-24T11:47:13.095Z,1.13
2023-03-24T11:49:47.065Z,0.70
2023-03-24T11:52:25.232Z,1.13
2023-03-24T11:54:55.169Z,0.90
2023-03-24T11:57:45.552Z,0.70
2023-03-24T12:00:23.010Z,0.90
2023-03-24T12:03:14.405Z,1.10
2023-03-24T12:05:48.308Z,0.82
2023-03-24T12:11:09.551Z,0.90
2023-03-24T12:13:42.118Z,1.17
2023-03-24T12:16:22.917Z,1.38
2023-03-24T12:19:04.375Z,1.00
2023-03-24T12:21:46.838Z,1.10
2023-03-24T12:24:29.542Z,1.15
2023-03-24T12:27:02.204Z,0.98
2023-03-24T12:30:02.969Z,1.20
2023-03-24T12:32:49.167Z,1.33
2023-03-24T12:35:54.978Z,1.10
2023-03-24T12:38:37.481Z,1.15
2023-03-24T12:41:25.027Z,5.07
2023-03-24T12:44:10.585Z,1.10
2023-03-24T12:46:52.508Z,1.27
2023-03-24T12:49:42.436Z,1.02
2023-03-24T12:52:28.230Z,0.98
2023-03-24T12:55:05.002Z,1.45
2023-03-24T12:57:42.453Z,0.90
2023-03-24T13:00:18.314Z,1.13
2023-03-24T13:05:25.431Z,1.85
2023-03-24T13:07:59.135Z,1.33
2023-03-24T13:10:31.125Z,0.90
2023-03-24T13:13:09.181Z,1.15
2023-03-24T13:15:43.263Z,0.90
2023-03-24T13:18:26.649Z,1.05
2023-03-24T13:20:59.056Z,1.40
2023-03-24T13:23:43.815Z,0.90
2023-03-24T13:26:38.849Z,1.00
2023-03-24T13:29:38.381Z,1.10
2023-03-24T13:32:27.309Z,1.00
2023-03-24T13:35:01.576Z,0.98
2023-03-24T13:37:38.332Z,0.70
2023-03-24T13:40:13.955Z,1.20
2023-03-24T13:42:48.523Z,1.02
2023-03-24T13:45:34.882Z,0.93
2023-03-24T13:50:42.246Z,0.80
2023-03-24T13:53:17.599Z,1.15
2023-03-24T13:55:52.979Z,1.10
2023-03-24T13:58:24.872Z,0.85
2023-03-24T14:01:20.974Z,0.80
2023-03-24T14:04:25.747Z,1.10
2023-03-24T14:06:59.583Z,0.80
2023-03-24T14:09:31.430Z,1.20
2023-03-24T14:12:23.487Z,0.90
2023-03-24T14:15:17.314Z,0.95
2023-03-24T14:17:49.009Z,0.90
2023-03-24T14:20:37.150Z,1.10
2023-03-24T14:23:25.676Z,0.90
2023-03-24T14:25:59.399Z,1.60
2023-03-24T14:28:34.835Z,1.40
2023-03-24T14:31:13.434Z,0.73
2023-03-24T14:33:46.593Z,1.08
2023-03-24T14:36:25.569Z,0.82
2023-03-24T14:38:58.187Z,0.82
2023-03-24T14:41:34.402Z,0.90
2023-03-24T14:44:04.623Z,1.10
2023-03-24T14:46:48.180Z,0.95
2023-03-24T14:49:26.767Z,0.80
2023-03-24T14:52:14.021Z,0.82
2023-03-24T14:54:51.435Z,0.90
2023-03-24T14:57:24.919Z,0.90
2023-03-24T15:00:01.679Z,1.25
2023-03-24T15:02:37.728Z,0.88
2023-03-24T15:05:25.130Z,1.02
2023-03-24T15:08:11.608Z,1.00
2023-03-24T15:10:49.899Z,0.93
2023-03-24T15:13:33.478Z,1.00
2023-03-24T15:16:06.864Z,1.20
2023-03-24T15:18:40.374Z,1.15
2023-03-24T15:21:18.617Z,0.95
2023-03-24T15:23:50.732Z,1.25
2023-03-24T15:26:25.207Z,1.10
2023-03-24T15:28:59.763Z,0.95
2023-03-24T15:31:31.938Z,1.23
2023-03-24T15:34:11.283Z,1.00
2023-03-24T15:36:45.801Z,1.05
2023-03-24T15:39:21.973Z,1.00
2023-03-24T15:41:55.867Z,1.20
2023-03-24T15:44:31.347Z,0.77
2023-03-24T15:47:02.712Z,1.13
2023-03-24T15:49:35.771Z,1.10
2023-03-24T15:52:09.021Z,1.05
2023-03-24T15:54:42.659Z,0.95
2023-03-24T15:57:21.194Z,0.88
2023-03-24T15:59:53.564Z,1.00
2023-03-24T16:02:30.238Z,0.77
2023-03-24T16:07:37.817Z,1.00
2023-03-24T16:10:09.945Z,0.95
2023-03-24T16:12:42.240Z,1.42
2023-03-24T16:15:16.098Z,0.93
2023-03-24T16:17:46.550Z,1.10
2023-03-24T16:20:23.415Z,1.08
2023-03-24T16:22:53.057Z,1.00
2023-03-24T16:25:22.697Z,0.98
2023-03-24T16:27:54.968Z,1.17
2023-03-24T16:30:27.475Z,0.93
2023-03-24T16:32:57.185Z,1.10
2023-03-24T16:35:26.902Z,1.20
2023-03-24T16:37:56.579Z,1.13
2023-03-24T16:40:34.514Z,1.30
2023-03-24T16:43:07.007Z,1.15
2023-03-24T16:45:36.730Z,1.33
2023-03-24T16:48:06.642Z,1.42
2023-03-24T16:50:39.747Z,0.90
2023-03-24T16:53:09.852Z,1.50
2023-03-24T16:55:41.545Z,1.95
2023-03-24T16:58:16.464Z,1.30
2023-03-24T17:00:49.358Z,1.30
2023-03-24T17:03:19.407Z,1.27
2023-03-24T17:05:51.426Z,1.25
2023-03-24T17:08:21.942Z,1.33
2023-03-24T17:10:54.277Z,1.17
2023-03-24T17:13:28.359Z,1.20
2023-03-24T17:15:58.076Z,1.30
2023-03-24T17:18:28.088Z,1.35
2023-03-24T17:20:57.854Z,1.30
2023-03-24T17:23:27.968Z,1.40
2023-03-24T17:25:57.665Z,1.52
2023-03-24T17:28:29.945Z,1.08
2023-03-24T17:30:59.622Z,1.52
2023-03-24T17:33:29.310Z,1.70
2023-03-24T17:35:59.237Z,1.50
2023-03-24T17:38:29.121Z,1.20
2023-03-24T17:41:03.691Z,1.48
2023-03-24T17:43:36.167Z,1.80
2023-03-24T17:46:06.156Z,2.08
2023-03-24T17:48:36.503Z,2.33
2023-03-24T17:51:07.328Z,1.75
2023-03-24T17:53:37.144Z,1.83
2023-03-24T17:56:07.972Z,1.70
2023-03-24T17:58:41.867Z,0.95
2023-03-24T18:01:14.953Z,1.08
2023-03-24T18:03:44.665Z,1.48
2023-03-24T18:06:17.091Z,1.00
2023-03-24T18:08:47.382Z,1.23
2023-03-24T18:11:17.872Z,1.15
2023-03-24T18:13:50.755Z,1.10
2023-03-24T18:16:22.129Z,1.60
2023-03-24T18:18:53.716Z,0.93
2023-03-24T18:21:23.701Z,0.98
2023-03-24T18:23:53.584Z,1.00
2023-03-24T18:26:23.612Z,0.85
2023-03-24T18:28:56.421Z,1.20
2023-03-24T18:31:26.533Z,1.23
2023-03-24T18:33:57.288Z,0.90
2023-03-24T18:36:29.320Z,0.88
2023-03-24T18:39:02.076Z,0.98
2023-03-24T18:41:32.265Z,1.00
2023-03-24T18:44:04.557Z,0.57
2023-03-24T18:46:34.739Z,0.70
2023-03-24T18:49:04.498Z,0.60
2023-03-24T18:51:35.763Z,0.80
2023-03-24T18:54:06.648Z,0.43
2023-03-24T18:56:36.583Z,0.98
2023-03-24T18:59:09.398Z,1.67
2023-03-24T19:01:39.525Z,0.75
2023-03-24T19:04:09.782Z,0.77
2023-03-24T19:06:42.483Z,0.60
2023-03-24T19:09:13.848Z,0.52
2023-03-24T19:11:45.185Z,0.60
2023-03-24T19:14:17.478Z,0.50
2023-03-24T19:16:47.260Z,0.73
2023-03-24T19:19:18.649Z,0.80
2023-03-24T19:21:48.953Z,0.80
2023-03-24T19:24:18.620Z,0.70
2023-03-24T19:26:48.422Z,0.65
2023-03-24T19:29:21.243Z,0.80
2023-03-24T19:31:51.549Z,0.50
2023-03-24T19:34:21.177Z,0.63
2023-03-24T19:36:52.174Z,0.80
2023-03-24T19:39:22.642Z,0.90
2023-03-24T19:41:52.405Z,0.80
2023-03-24T19:44:25.165Z,1.33
2023-03-24T19:46:54.885Z,1.50
2023-03-24T19:49:24.514Z,0.80
2023-03-24T19:51:54.170Z,1.10
2023-03-24T19:54:24.326Z,1.13
2023-03-24T19:56:54.775Z,1.10
2023-03-24T19:59:27.656Z,1.48
2023-03-24T20:01:57.629Z,1.23
2023-03-24T20:04:28.004Z,0.82
2023-03-24T20:06:58.718Z,0.52
2023-03-24T20:09:28.767Z,0.90
2023-03-24T20:11:58.571Z,1.00
2023-03-24T20:14:31.706Z,0.77
2023-03-24T20:17:02.574Z,0.70
2023-03-24T20:19:32.976Z,0.60
2023-03-24T20:22:02.834Z,0.65
2023-03-24T20:24:33.168Z,0.65
2023-03-24T20:27:03.921Z,0.70
2023-03-24T20:29:36.776Z,0.57
2023-03-24T20:32:10.173Z,0.77
2023-03-24T20:34:40.971Z,0.52
2023-03-24T20:37:11.133Z,0.50
2023-03-24T20:39:43.599Z,0.60
2023-03-24T20:42:14.470Z,0.50
2023-03-24T20:44:47.165Z,0.50
2023-03-24T20:47:17.401Z,0.57
2023-03-24T20:49:47.380Z,0.57
2023-03-24T20:52:17.361Z,0.85
2023-03-24T20:54:47.098Z,0.43
2023-03-24T20:57:17.579Z,0.43
2023-03-24T20:59:51.463Z,0.60
2023-03-24T21:02:21.566Z,0.70
2023-03-24T21:04:51.727Z,0.60
2023-03-24T21:07:21.737Z,0.80
2023-03-24T21:09:51.385Z,0.90
2023-03-24T21:12:22.062Z,0.35
2023-03-24T21:14:54.328Z,0.32
2023-03-24T21:17:32.278Z,0.40
2023-03-24T21:20:12.917Z,0.32
2023-03-24T21:22:53.507Z,0.40
2023-03-24T21:25:24.381Z,0.30
2023-03-24T21:27:54.512Z,0.45
2023-03-24T21:30:27.898Z,0.52
2023-03-24T21:32:59.137Z,0.50
2023-03-24T21:35:29.193Z,0.30
2023-03-24T21:37:59.125Z,0.50
2023-03-24T21:40:28.842Z,0.20
2023-03-24T21:43:04.624Z,0.47
2023-03-24T21:45:38.724Z,0.50
2023-03-24T21:48:09.688Z,0.50
2023-03-24T21:50:39.451Z,0.40
2023-03-24T21:53:15.405Z,0.50
2023-03-24T21:55:52.628Z,0.50
2023-03-24T21:58:22.740Z,0.70
2023-03-24T22:00:57.895Z,0.43
2023-03-24T22:03:28.113Z,0.55
2023-03-24T22:05:59.845Z,0.50
2023-03-24T22:08:30.868Z,0.60
2023-03-24T22:11:04.382Z,0.60
2023-03-24T22:13:37.262Z,0.43
2023-03-24T22:16:10.788Z,0.60
2023-03-24T22:18:40.613Z,0.50
2023-03-24T22:21:12.644Z,0.70
2023-03-24T22:23:43.223Z,0.63
2023-03-24T22:26:15.605Z,0.75
2023-03-24T22:28:45.831Z,0.50
2023-03-24T22:31:23.207Z,0.60
2023-03-24T22:33:53.964Z,0.80
2023-03-24T22:36:23.697Z,0.77
2023-03-24T22:38:53.715Z,0.50
2023-03-24T22:41:23.504Z,0.82
2023-03-24T22:43:53.184Z,0.82
2023-03-24T22:46:25.690Z,0.80
2023-03-24T22:48:55.421Z,1.20
2023-03-24T22:51:25.111Z,0.88
2023-03-24T22:53:54.991Z,0.88
2023-03-24T22:56:25.158Z,0.52
2023-03-24T22:58:54.882Z,0.70
2023-03-24T23:01:27.188Z,0.65
2023-03-24T23:03:56.962Z,0.60
2023-03-24T23:06:28.188Z,0.60
2023-03-24T23:08:59.661Z,0.80
2023-03-24T23:11:29.512Z,0.75
2023-03-24T23:14:05.309Z,0.90
2023-03-24T23:16:40.538Z,0.85
2023-03-24T23:19:11.169Z,0.60
2023-03-24T23:21:41.163Z,0.70
2023-03-24T23:24:11.116Z,0.60
2023-03-24T23:26:40.858Z,0.90
2023-03-24T23:29:11.246Z,0.52
2023-03-24T23:31:43.505Z,0.80
2023-03-24T23:34:14.644Z,1.15
2023-03-24T23:36:45.007Z,0.60
2023-03-24T23:39:14.744Z,0.63
2023-03-24T23:41:44.452Z,0.60
2023-03-24T23:44:14.998Z,0.50
2023-03-24T23:46:47.225Z,0.60
2023-03-24T23:49:17.114Z,0.60
2023-03-24T23:51:46.776Z,0.40
2023-03-24T23:54:16.444Z,0.52
2023-03-24T23:56:47.411Z,1.08
2023-03-24T23:59:17.141Z,0.55
